Terminal Aerodrome Forecast
Issued by NWS

Home | Current Version | Previous Version | Text Only | Print | Product List | Glossary On
Versions: 1 2 3 4 5 6 7 8 9 10 11 12 13
000
FTUS46 KSGX 212337
TAFONT
TAF
KONT 212337Z 2200/2306 25011KT P6SM BKN250
     FM220400 VRB04KT P6SM BKN250
     FM222100 26011KT P6SM SCT250
     FM230400 VRB04KT P6SM SCT250=

USA.gov is the U.S. government's official web portal to all federal, state and local government web resources and services.